createdAt,value
2023-02-02T00:01:29.454Z,0.40
2023-02-02T00:03:57.107Z,0.30
2023-02-02T00:06:25.044Z,0.60
2023-02-02T00:08:52.336Z,0.65
2023-02-02T00:11:19.829Z,0.43
2023-02-02T00:13:47.294Z,0.40
2023-02-02T00:16:27.053Z,0.60
2023-02-02T00:18:55.832Z,0.38
2023-02-02T00:21:23.715Z,0.40
2023-02-02T00:23:51.005Z,0.35
2023-02-02T00:26:18.392Z,0.40
2023-02-02T00:28:45.616Z,0.30
2023-02-02T00:31:13.109Z,0.30
2023-02-02T00:33:40.533Z,0.25
2023-02-02T00:36:08.017Z,0.20
2023-02-02T00:38:37.788Z,0.30
2023-02-02T00:41:05.733Z,0.30
2023-02-02T00:43:32.940Z,0.50
2023-02-02T00:46:00.383Z,0.28
2023-02-02T00:48:27.660Z,0.35
2023-02-02T00:50:54.875Z,0.20
2023-02-02T00:53:22.389Z,0.40
2023-02-02T00:55:49.661Z,0.40
2023-02-02T00:58:16.860Z,0.40
2023-02-02T01:00:44.100Z,0.30
2023-02-02T01:03:13.280Z,0.30
2023-02-02T01:05:40.697Z,0.63
2023-02-02T01:08:08.080Z,0.40
2023-02-02T01:10:35.462Z,0.38
2023-02-02T01:13:03.194Z,0.30
2023-02-02T01:15:30.652Z,0.60
2023-02-02T01:17:58.355Z,0.38
2023-02-02T01:20:25.914Z,0.40
2023-02-02T01:22:53.230Z,0.30
2023-02-02T01:25:20.486Z,0.30
2023-02-02T01:27:47.787Z,0.20
2023-02-02T01:30:15.145Z,0.77
2023-02-02T01:32:42.332Z,1.13
2023-02-02T01:35:10.329Z,0.77
2023-02-02T01:37:37.578Z,0.93
2023-02-02T01:40:05.051Z,1.35
2023-02-02T01:42:33.503Z,0.70
2023-02-02T01:45:26.429Z,0.60
2023-02-02T01:47:57.220Z,1.10
2023-02-02T01:50:26.157Z,0.75
2023-02-02T01:55:23.239Z,0.70
2023-02-02T01:57:56.845Z,0.82
2023-02-02T02:00:27.186Z,0.85
2023-02-02T02:03:06.956Z,0.60
2023-02-02T02:05:41.553Z,0.40
2023-02-02T02:08:35.027Z,0.40
2023-02-02T02:11:02.227Z,0.40
2023-02-02T02:13:48.399Z,0.28
2023-02-02T02:16:35.908Z,0.32
2023-02-02T02:19:21.789Z,0.22
2023-02-02T02:22:26.825Z,0.30
2023-02-02T02:25:15.539Z,0.40
2023-02-02T02:28:01.419Z,0.35
2023-02-02T02:30:31.855Z,0.32
2023-02-02T02:33:02.094Z,0.50
2023-02-02T02:35:29.293Z,0.63
2023-02-02T02:37:56.521Z,0.30
2023-02-02T02:40:38.725Z,0.50
2023-02-02T02:43:13.974Z,0.40
2023-02-02T02:45:42.372Z,0.35
2023-02-02T02:48:10.474Z,0.50
2023-02-02T02:50:37.929Z,0.40
2023-02-02T02:53:10.529Z,0.50
2023-02-02T02:55:43.580Z,0.47
2023-02-02T02:58:13.569Z,0.40
2023-02-02T03:00:45.983Z,2.45
2023-02-02T03:03:54.895Z,1.17
2023-02-02T03:06:24.146Z,1.02
2023-02-02T03:09:00.578Z,1.20
2023-02-02T03:11:27.824Z,1.20
2023-02-02T03:13:55.751Z,0.70
2023-02-02T03:16:23.003Z,0.60
2023-02-02T03:18:50.204Z,0.50
2023-02-02T03:21:17.441Z,0.70
2023-02-02T03:23:44.663Z,0.98
2023-02-02T03:26:12.091Z,0.80
2023-02-02T03:28:39.347Z,1.40
2023-02-02T03:31:06.844Z,0.80
2023-02-02T03:33:36.184Z,0.70
2023-02-02T03:36:03.423Z,0.60
2023-02-02T03:38:30.701Z,0.95
2023-02-02T03:40:57.948Z,0.75
2023-02-02T03:43:25.574Z,0.60
2023-02-02T03:45:56.719Z,0.98
2023-02-02T03:48:23.901Z,0.70
2023-02-02T03:50:51.185Z,0.65
2023-02-02T03:53:18.364Z,0.65
2023-02-02T03:55:45.593Z,0.93
2023-02-02T03:58:12.906Z,0.63
2023-02-02T04:00:40.144Z,0.80
2023-02-02T04:03:07.520Z,1.05
2023-02-02T04:05:34.762Z,0.60
2023-02-02T04:08:02.037Z,0.73
2023-02-02T04:10:29.409Z,0.60
2023-02-02T04:12:56.659Z,0.82
2023-02-02T04:15:24.215Z,1.35
2023-02-02T04:17:51.606Z,1.13
2023-02-02T04:20:18.933Z,1.40
2023-02-02T04:22:46.206Z,1.40
2023-02-02T04:25:13.387Z,1.50
2023-02-02T04:27:40.636Z,1.13
2023-02-02T04:30:09.010Z,1.23
2023-02-02T04:32:36.310Z,1.83
2023-02-02T04:35:03.579Z,1.25
2023-02-02T04:37:33.956Z,2.40
2023-02-02T04:40:01.131Z,3.45
2023-02-02T04:42:28.462Z,3.28
2023-02-02T04:44:55.661Z,2.20
2023-02-02T04:47:22.889Z,3.85
2023-02-02T04:49:50.301Z,3.00
2023-02-02T04:52:17.707Z,3.00
2023-02-02T04:54:44.900Z,2.83
2023-02-02T04:57:12.092Z,3.25
2023-02-02T04:59:42.248Z,3.13
2023-02-02T05:02:10.289Z,5.63
2023-02-02T05:04:37.537Z,5.95
2023-02-02T05:07:04.802Z,9.02
2023-02-02T05:09:32.038Z,13.65
2023-02-02T05:12:00.574Z,13.57
2023-02-02T05:14:27.790Z,9.40
2023-02-02T05:16:55.092Z,8.65
2023-02-02T05:19:22.458Z,14.30
2023-02-02T05:21:51.351Z,18.05
2023-02-02T05:24:18.794Z,90.63
2023-02-02T05:26:46.085Z,48.60
2023-02-02T05:29:13.271Z,63.42
2023-02-02T05:31:40.587Z,93.43
2023-02-02T05:34:11.380Z,68.70
2023-02-02T05:36:38.695Z,44.75
2023-02-02T05:39:05.900Z,56.00
2023-02-02T05:41:33.259Z,46.13
2023-02-02T05:44:00.677Z,46.92
2023-02-02T05:46:27.986Z,55.42
2023-02-02T05:48:55.196Z,31.48
2023-02-02T05:51:24.854Z,30.65
2023-02-02T05:53:52.156Z,20.95
2023-02-02T05:56:19.479Z,25.38
2023-02-02T05:58:49.762Z,12.80
2023-02-02T06:01:17.734Z,21.90
2023-02-02T06:03:45.093Z,13.88
2023-02-02T06:06:13.441Z,13.25
2023-02-02T06:08:40.690Z,19.88
2023-02-02T06:11:11.459Z,15.63
2023-02-02T06:13:38.835Z,19.80
2023-02-02T06:16:06.299Z,23.60
2023-02-02T06:18:34.052Z,16.55
2023-02-02T06:21:02.021Z,12.82
2023-02-02T06:23:29.268Z,6.90
2023-02-02T06:25:56.548Z,8.40
2023-02-02T06:28:23.864Z,11.07
2023-02-02T06:30:51.170Z,12.13
2023-02-02T06:33:18.487Z,21.65
2023-02-02T06:35:45.751Z,14.07
2023-02-02T06:38:12.995Z,12.48
2023-02-02T06:40:40.246Z,14.50
2023-02-02T06:43:09.089Z,17.73
2023-02-02T06:45:40.379Z,15.32
2023-02-02T06:48:11.014Z,15.85
2023-02-02T06:50:38.854Z,17.73
2023-02-02T06:53:06.315Z,20.45
2023-02-02T06:55:33.584Z,11.23
2023-02-02T06:58:01.735Z,4.97
2023-02-02T07:00:30.142Z,3.85
2023-02-02T07:02:57.482Z,5.80
2023-02-02T07:05:25.197Z,9.93
2023-02-02T07:07:52.615Z,12.98
2023-02-02T07:11:11.897Z,11.88
2023-02-02T07:13:07.363Z,18.23
2023-02-02T07:15:35.253Z,19.50
2023-02-02T07:18:02.445Z,17.23
2023-02-02T07:20:29.727Z,19.08
2023-02-02T07:22:57.038Z,14.20
2023-02-02T07:25:24.708Z,14.15
2023-02-02T07:27:55.590Z,15.20
2023-02-02T07:30:22.862Z,14.05
2023-02-02T07:32:50.511Z,14.50
2023-02-02T07:35:17.874Z,13.95
2023-02-02T07:37:45.107Z,11.07
2023-02-02T07:40:12.508Z,16.23
2023-02-02T07:42:39.784Z,23.13
2023-02-02T07:45:26.868Z,19.92
2023-02-02T07:47:58.647Z,21.20
2023-02-02T07:50:26.359Z,19.02
2023-02-02T07:52:53.891Z,11.93
2023-02-02T07:55:21.472Z,29.05
2023-02-02T07:57:48.663Z,17.48
2023-02-02T08:00:16.041Z,11.98
2023-02-02T08:02:43.291Z,16.00
2023-02-02T08:05:10.628Z,10.38
2023-02-02T08:07:37.989Z,9.43
2023-02-02T08:10:05.251Z,14.48
2023-02-02T08:12:32.669Z,17.63
2023-02-02T08:14:59.934Z,18.23
2023-02-02T08:17:27.190Z,16.38
2023-02-02T08:19:54.359Z,11.68
2023-02-02T08:22:21.576Z,11.45
2023-02-02T08:24:49.288Z,8.27
2023-02-02T08:27:16.982Z,10.45
2023-02-02T08:29:44.464Z,10.02
2023-02-02T08:32:11.661Z,9.00
2023-02-02T08:34:40.815Z,9.20
2023-02-02T08:37:08.039Z,4.80
2023-02-02T08:39:35.308Z,4.93
2023-02-02T08:42:02.532Z,6.32
2023-02-02T08:44:45.605Z,6.35
2023-02-02T08:47:16.909Z,8.35
2023-02-02T08:49:45.163Z,5.18
2023-02-02T08:52:12.396Z,3.67
2023-02-02T08:54:39.648Z,3.65
2023-02-02T08:57:07.553Z,4.90
2023-02-02T08:59:34.759Z,8.68
2023-02-02T09:02:02.041Z,2.78
2023-02-02T09:04:29.781Z,2.45
2023-02-02T09:06:57.004Z,2.38
2023-02-02T09:09:24.210Z,3.10
2023-02-02T09:11:51.392Z,3.22
2023-02-02T09:14:18.682Z,4.18
2023-02-02T09:16:46.016Z,3.47
2023-02-02T09:19:13.342Z,4.50
2023-02-02T09:21:40.662Z,5.50
2023-02-02T09:24:09.670Z,4.65
2023-02-02T09:29:04.861Z,4.32
2023-02-02T09:31:34.652Z,7.50
2023-02-02T09:34:09.611Z,6.18
2023-02-02T09:36:37.694Z,7.72
2023-02-02T09:39:06.494Z,12.57
2023-02-02T09:41:40.488Z,9.93
2023-02-02T09:44:31.521Z,11.43
2023-02-02T09:46:58.762Z,5.07
2023-02-02T09:53:56.264Z,9.15
2023-02-02T09:56:26.963Z,3.83
2023-02-02T09:58:55.211Z,7.50
2023-02-02T10:01:25.293Z,4.13
2023-02-02T10:03:54.077Z,4.40
2023-02-02T10:06:24.396Z,3.25
2023-02-02T10:08:56.399Z,3.80
2023-02-02T10:11:30.838Z,2.97
2023-02-02T10:14:00.674Z,5.05
2023-02-02T10:16:28.214Z,6.07
2023-02-02T10:19:15.677Z,6.13
2023-02-02T10:21:52.955Z,5.47
2023-02-02T10:24:21.435Z,2.83
2023-02-02T10:26:54.286Z,4.55
2023-02-02T10:29:24.695Z,13.25
2023-02-02T10:32:07.181Z,4.10
2023-02-02T10:34:41.626Z,2.55
2023-02-02T10:37:17.285Z,3.30
2023-02-02T10:39:44.547Z,3.88
2023-02-02T10:42:12.128Z,2.97
2023-02-02T10:44:42.473Z,2.08
2023-02-02T10:47:11.479Z,2.00
2023-02-02T10:52:16.525Z,1.50
2023-02-02T10:54:58.348Z,1.70
2023-02-02T10:57:48.702Z,2.75
2023-02-02T11:00:23.076Z,3.05
2023-02-02T11:02:52.211Z,2.22
2023-02-02T11:05:43.025Z,2.53
2023-02-02T11:08:14.717Z,2.03
2023-02-02T11:10:43.148Z,1.38
2023-02-02T11:13:13.197Z,1.80
2023-02-02T11:15:40.520Z,4.07
2023-02-02T11:18:16.056Z,4.55
2023-02-02T11:20:45.512Z,9.15
2023-02-02T11:23:18.138Z,2.22
2023-02-02T11:25:45.468Z,3.20
2023-02-02T11:28:24.139Z,1.73
2023-02-02T11:30:53.232Z,2.10
2023-02-02T11:33:29.668Z,1.90
2023-02-02T11:35:58.744Z,1.90
2023-02-02T11:38:26.655Z,1.70
2023-02-02T11:40:54.085Z,2.03
2023-02-02T11:43:26.480Z,1.10
2023-02-02T11:45:55.462Z,1.48
2023-02-02T11:50:53.901Z,2.00
2023-02-02T11:53:23.292Z,2.00
2023-02-02T11:55:50.740Z,1.85
2023-02-02T11:58:43.096Z,1.70
2023-02-02T12:01:17.151Z,2.13
2023-02-02T12:03:48.698Z,2.03
2023-02-02T12:06:23.043Z,3.22
2023-02-02T12:08:50.562Z,2.50
2023-02-02T12:11:40.816Z,2.50
2023-02-02T12:14:23.451Z,3.00
2023-02-02T12:17:14.058Z,3.17
2023-02-02T12:19:48.425Z,1.85
2023-02-02T12:22:18.365Z,2.60
2023-02-02T12:25:14.299Z,1.42
2023-02-02T12:27:44.510Z,2.28
2023-02-02T12:30:11.923Z,2.10
2023-02-02T12:32:46.155Z,2.88
2023-02-02T12:35:22.509Z,2.50
2023-02-02T12:38:07.457Z,2.17
2023-02-02T12:40:40.776Z,19.23
2023-02-02T12:43:08.026Z,2.25
2023-02-02T12:45:41.366Z,2.15
2023-02-02T12:48:23.374Z,1.63
2023-02-02T12:50:50.582Z,1.67
2023-02-02T12:53:23.797Z,2.10
2023-02-02T12:55:53.839Z,3.53
2023-02-02T12:58:37.537Z,3.08
2023-02-02T13:01:11.307Z,2.40
2023-02-02T13:03:53.611Z,3.72
2023-02-02T13:06:20.830Z,2.63
2023-02-02T13:08:56.199Z,2.92
2023-02-02T13:11:33.009Z,2.55
2023-02-02T13:14:03.447Z,4.97
2023-02-02T13:16:32.027Z,4.35
2023-02-02T13:19:05.443Z,2.42
2023-02-02T13:21:32.949Z,3.13
2023-02-02T13:24:01.592Z,6.00
2023-02-02T13:26:34.935Z,4.25
2023-02-02T13:29:06.453Z,2.08
2023-02-02T13:31:52.419Z,2.38
2023-02-02T13:34:22.502Z,3.88
2023-02-02T13:36:58.554Z,2.50
2023-02-02T13:39:34.517Z,1.45
2023-02-02T13:42:02.957Z,3.47
2023-02-02T13:44:37.599Z,2.53
2023-02-02T13:47:10.381Z,2.03
2023-02-02T13:49:54.592Z,1.67
2023-02-02T13:52:40.811Z,2.05
2023-02-02T13:55:26.354Z,1.30
2023-02-02T13:58:12.621Z,2.88
2023-02-02T14:00:47.750Z,1.55
2023-02-02T14:03:38.761Z,1.52
2023-02-02T14:06:06.293Z,2.15
2023-02-02T14:08:34.011Z,2.95
2023-02-02T14:11:02.825Z,2.13
2023-02-02T14:13:53.336Z,1.15
2023-02-02T14:16:32.707Z,1.58
2023-02-02T14:19:01.195Z,1.60
2023-02-02T14:21:34.179Z,1.90
2023-02-02T14:24:26.133Z,1.35
2023-02-02T14:26:53.419Z,1.30
2023-02-02T14:29:32.644Z,0.93
2023-02-02T14:32:01.660Z,1.58
2023-02-02T14:37:23.047Z,3.13
2023-02-02T14:40:12.439Z,1.73
2023-02-02T14:43:10.809Z,4.53
2023-02-02T14:45:42.116Z,4.78
2023-02-02T14:48:16.339Z,4.13
2023-02-02T14:50:47.888Z,2.30
2023-02-02T14:53:18.635Z,2.00
2023-02-02T14:56:04.525Z,1.48
2023-02-02T14:58:38.188Z,1.73
2023-02-02T15:01:14.048Z,1.75
2023-02-02T15:03:45.461Z,1.80
2023-02-02T15:06:30.559Z,1.50
2023-02-02T15:09:33.642Z,1.80
2023-02-02T15:12:08.941Z,1.80
2023-02-02T15:14:36.276Z,1.75
2023-02-02T15:17:08.958Z,2.00
2023-02-02T15:19:38.908Z,2.78
2023-02-02T15:22:21.219Z,2.15
2023-02-02T15:24:49.017Z,1.83
2023-02-02T15:27:18.406Z,1.65
2023-02-02T15:29:46.946Z,2.30
2023-02-02T15:32:16.303Z,2.53
2023-02-02T15:34:44.979Z,2.60
2023-02-02T15:37:23.963Z,1.90
2023-02-02T15:39:56.408Z,2.30
2023-02-02T15:42:45.504Z,2.65
2023-02-02T15:46:01.787Z,1.77
2023-02-02T15:48:30.307Z,1.67
2023-02-02T15:51:01.679Z,2.65
2023-02-02T15:53:32.771Z,3.08
2023-02-02T15:56:00.180Z,2.90
2023-02-02T15:58:29.358Z,4.03
2023-02-02T16:00:58.041Z,4.70
2023-02-02T16:03:34.508Z,3.55
2023-02-02T16:06:01.868Z,4.22
2023-02-02T16:08:34.402Z,2.35
2023-02-02T16:11:12.174Z,1.83
2023-02-02T16:13:40.506Z,1.92
2023-02-02T16:16:21.658Z,1.73
2023-02-02T16:18:48.906Z,1.52
2023-02-02T16:21:18.413Z,1.33
2023-02-02T16:23:45.768Z,1.40
2023-02-02T16:26:16.503Z,1.67
2023-02-02T16:28:45.717Z,1.50
2023-02-02T16:31:14.635Z,0.90
2023-02-02T16:33:42.947Z,1.23
2023-02-02T16:36:25.942Z,1.92
2023-02-02T16:38:54.336Z,1.13
2023-02-02T16:41:27.889Z,1.17
2023-02-02T16:43:55.246Z,1.35
2023-02-02T16:46:48.518Z,1.67
2023-02-02T16:49:22.721Z,1.30
2023-02-02T16:52:07.893Z,1.58
2023-02-02T16:54:35.147Z,1.70
2023-02-02T16:57:03.543Z,1.55
2023-02-02T16:59:37.976Z,2.25
2023-02-02T17:02:17.038Z,1.20
2023-02-02T17:04:48.666Z,1.20
2023-02-02T17:07:16.892Z,1.23
2023-02-02T17:09:45.245Z,1.48
2023-02-02T17:12:32.741Z,1.70
2023-02-02T17:17:30.829Z,1.27
2023-02-02T17:19:58.084Z,1.30
2023-02-02T17:22:27.685Z,1.10
2023-02-02T17:24:54.911Z,1.00
2023-02-02T17:27:34.037Z,0.70
2023-02-02T17:30:05.722Z,0.90
2023-02-02T17:32:32.941Z,1.17
2023-02-02T17:35:00.155Z,1.25
2023-02-02T17:37:29.701Z,1.13
2023-02-02T17:39:57.022Z,1.20
2023-02-02T17:42:28.048Z,0.90
2023-02-02T17:44:55.298Z,0.65
2023-02-02T17:47:22.626Z,0.50
2023-02-02T17:49:49.815Z,0.60
2023-02-02T17:52:17.190Z,0.70
2023-02-02T17:54:44.530Z,0.30
2023-02-02T17:57:12.663Z,0.40
2023-02-02T17:59:39.927Z,0.37
2023-02-02T18:02:07.252Z,0.70
2023-02-02T18:04:35.729Z,0.38
2023-02-02T18:07:03.793Z,0.50
2023-02-02T18:09:34.091Z,0.57
2023-02-02T18:12:01.453Z,0.43
2023-02-02T18:14:29.038Z,0.50
2023-02-02T18:16:56.254Z,0.57
2023-02-02T18:19:23.478Z,0.85
2023-02-02T18:21:50.708Z,0.70
2023-02-02T18:24:17.901Z,1.00
2023-02-02T18:26:45.219Z,0.68
2023-02-02T18:29:12.731Z,0.40
2023-02-02T18:31:42.285Z,0.85
2023-02-02T18:34:09.665Z,0.43
2023-02-02T18:36:37.050Z,1.05
2023-02-02T18:39:04.405Z,0.70
2023-02-02T18:41:31.647Z,1.00
2023-02-02T18:43:58.884Z,0.57
2023-02-02T18:46:27.005Z,0.45
2023-02-02T18:48:55.962Z,1.00
2023-02-02T18:53:50.178Z,0.65
2023-02-02T18:56:17.954Z,1.67
2023-02-02T18:58:45.222Z,1.17
2023-02-02T19:01:16.518Z,0.52
2023-02-02T19:03:48.222Z,0.98
2023-02-02T19:06:34.275Z,0.63
2023-02-02T19:09:01.530Z,0.63
2023-02-02T19:11:35.082Z,0.60
2023-02-02T19:14:02.416Z,0.60
2023-02-02T19:16:34.740Z,0.60
2023-02-02T19:19:06.675Z,0.60
2023-02-02T19:21:34.819Z,0.65
2023-02-02T19:24:02.094Z,0.70
2023-02-02T19:26:30.642Z,0.95
2023-02-02T19:29:02.267Z,0.80
2023-02-02T19:31:29.757Z,0.60
2023-02-02T19:33:57.719Z,0.75
2023-02-02T19:36:27.834Z,1.15
2023-02-02T19:39:16.052Z,0.90
2023-02-02T19:41:43.361Z,0.80
2023-02-02T19:44:21.496Z,1.30
2023-02-02T19:46:50.527Z,1.02
2023-02-02T19:49:26.541Z,0.77
2023-02-02T19:51:54.863Z,0.40
2023-02-02T19:54:28.098Z,0.60
2023-02-02T19:56:59.717Z,0.93
2023-02-02T19:59:29.187Z,0.55
2023-02-02T20:01:56.641Z,0.80
2023-02-02T20:04:24.187Z,0.88
2023-02-02T20:06:59.117Z,1.00
2023-02-02T20:09:30.603Z,0.50
2023-02-02T20:11:57.816Z,0.40
2023-02-02T20:14:30.192Z,0.50
2023-02-02T20:17:02.158Z,0.40
2023-02-02T20:19:33.389Z,0.85
2023-02-02T20:22:00.684Z,0.40
2023-02-02T20:24:38.054Z,0.60
2023-02-02T20:27:17.082Z,0.52
2023-02-02T20:29:45.925Z,1.23
2023-02-02T20:32:20.799Z,0.70
2023-02-02T20:34:48.780Z,0.70
2023-02-02T20:37:22.493Z,0.73
2023-02-02T20:39:54.587Z,0.32
2023-02-02T20:42:22.104Z,0.50
2023-02-02T20:44:49.633Z,0.82
2023-02-02T20:47:17.263Z,0.70
2023-02-02T20:49:44.626Z,0.45
2023-02-02T20:52:18.275Z,0.30
2023-02-02T20:54:45.554Z,0.40
2023-02-02T20:57:12.798Z,0.60
2023-02-02T20:59:40.370Z,0.60
2023-02-02T21:02:08.195Z,0.20
2023-02-02T21:04:35.474Z,0.30
2023-02-02T21:07:02.698Z,0.32
2023-02-02T21:09:31.395Z,0.38
2023-02-02T21:11:58.621Z,0.43
2023-02-02T21:14:25.818Z,0.40
2023-02-02T21:17:02.357Z,0.80
2023-02-02T21:19:40.052Z,0.50
2023-02-02T21:22:07.320Z,0.60
2023-02-02T21:24:34.635Z,0.20
2023-02-02T21:27:03.463Z,0.20
2023-02-02T21:32:02.463Z,0.38
2023-02-02T21:34:30.320Z,0.20
2023-02-02T21:36:58.324Z,0.38
2023-02-02T21:39:30.262Z,0.47
2023-02-02T21:42:09.631Z,0.30
2023-02-02T21:44:38.104Z,0.30
2023-02-02T21:47:16.860Z,0.30
2023-02-02T21:49:44.059Z,0.50
2023-02-02T21:52:20.697Z,0.22
2023-02-02T21:54:49.317Z,0.30
2023-02-02T21:57:20.808Z,0.40
2023-02-02T21:59:51.976Z,0.40
2023-02-02T22:02:32.574Z,0.40
2023-02-02T22:05:00.296Z,0.63
2023-02-02T22:07:27.588Z,1.20
2023-02-02T22:09:55.681Z,0.90
2023-02-02T22:12:24.693Z,0.80
2023-02-02T22:14:52.837Z,0.68
2023-02-02T22:17:28.720Z,1.75
2023-02-02T22:20:00.700Z,0.70
2023-02-02T22:22:32.237Z,0.47
2023-02-02T22:25:00.345Z,0.60
2023-02-02T22:27:41.555Z,0.90
2023-02-02T22:30:21.242Z,0.50
2023-02-02T22:32:48.672Z,1.65
2023-02-02T22:35:15.917Z,0.75
2023-02-02T22:37:43.292Z,0.75
2023-02-02T22:40:11.162Z,0.77
2023-02-02T22:42:38.410Z,0.50
2023-02-02T22:45:05.800Z,0.73
2023-02-02T22:47:33.075Z,0.57
2023-02-02T22:50:00.308Z,1.35
2023-02-02T22:52:27.629Z,1.10
2023-02-02T22:54:54.909Z,0.50
2023-02-02T22:57:22.058Z,0.30
2023-02-02T22:59:49.292Z,0.55
2023-02-02T23:02:16.571Z,0.22
2023-02-02T23:04:43.824Z,0.25
2023-02-02T23:07:11.059Z,0.45
2023-02-02T23:09:38.276Z,0.40
2023-02-02T23:12:05.686Z,0.22
2023-02-02T23:14:32.900Z,0.30
2023-02-02T23:17:00.163Z,0.70
2023-02-02T23:19:27.467Z,0.22
2023-02-02T23:21:54.768Z,0.22
2023-02-02T23:24:22.013Z,0.20
2023-02-02T23:26:49.280Z,0.38
2023-02-02T23:29:16.509Z,0.40
2023-02-02T23:31:43.811Z,0.30
2023-02-02T23:34:11.054Z,0.20
2023-02-02T23:36:38.365Z,0.35
2023-02-02T23:39:05.692Z,0.30
2023-02-02T23:41:32.954Z,0.20
2023-02-02T23:44:00.164Z,0.35
2023-02-02T23:46:27.508Z,0.30
2023-02-02T23:48:55.068Z,0.40
2023-02-02T23:51:22.421Z,0.28
2023-02-02T23:53:49.893Z,0.20
2023-02-02T23:56:17.492Z,0.70
2023-02-02T23:58:44.737Z,0.40
